createdAt,value
2022-10-09T00:01:31.879Z,6.63
2022-10-09T00:04:01.337Z,8.30
2022-10-09T00:06:34.799Z,10.03
2022-10-09T00:09:04.998Z,11.40
2022-10-09T00:11:35.411Z,6.57
2022-10-09T00:14:04.985Z,6.63
2022-10-09T00:16:33.336Z,5.53
2022-10-09T00:19:01.481Z,8.37
2022-10-09T00:21:34.087Z,5.30
2022-10-09T00:24:05.029Z,5.57
2022-10-09T00:26:36.198Z,4.77
2022-10-09T00:29:04.784Z,10.27
2022-10-09T00:31:32.930Z,6.13
2022-10-09T00:34:01.042Z,6.77
2022-10-09T00:36:30.501Z,5.13
2022-10-09T00:38:58.912Z,5.10
2022-10-09T00:41:29.941Z,4.83
2022-10-09T00:44:01.478Z,5.13
2022-10-09T00:46:36.358Z,6.17
2022-10-09T00:49:18.353Z,5.57
2022-10-09T00:51:51.129Z,5.07
2022-10-09T00:54:23.791Z,4.27
2022-10-09T00:56:52.567Z,4.70
2022-10-09T00:59:21.837Z,5.47
2022-10-09T01:01:50.000Z,5.10
2022-10-09T01:04:18.239Z,5.97
2022-10-09T01:07:05.367Z,6.27
2022-10-09T01:09:43.291Z,6.17
2022-10-09T01:12:23.383Z,5.63
2022-10-09T01:15:02.645Z,5.57
2022-10-09T01:17:39.300Z,8.00
2022-10-09T01:20:30.683Z,5.80
2022-10-09T01:23:43.790Z,5.53
2022-10-09T01:26:33.605Z,6.57
2022-10-09T01:29:07.425Z,5.13
2022-10-09T01:31:42.482Z,4.73
2022-10-09T01:34:14.210Z,5.83
2022-10-09T01:36:44.254Z,4.60
2022-10-09T01:39:17.576Z,3.80
2022-10-09T01:41:47.428Z,3.97
2022-10-09T01:44:22.862Z,4.27
2022-10-09T01:46:51.242Z,4.47
2022-10-09T01:49:38.274Z,4.27
2022-10-09T01:52:25.166Z,4.03
2022-10-09T01:55:08.073Z,4.10
2022-10-09T01:57:44.647Z,4.30
2022-10-09T02:00:15.459Z,4.53
2022-10-09T02:02:45.738Z,4.43
2022-10-09T02:05:20.875Z,4.90
2022-10-09T02:07:49.168Z,5.10
2022-10-09T02:10:20.793Z,4.77
2022-10-09T02:12:56.285Z,5.43
2022-10-09T02:15:32.755Z,5.37
2022-10-09T02:18:09.228Z,5.03
2022-10-09T02:20:42.963Z,4.20
2022-10-09T02:23:14.084Z,4.30
2022-10-09T02:25:42.582Z,4.07
2022-10-09T02:28:11.808Z,3.93
2022-10-09T02:30:52.664Z,3.77
2022-10-09T02:33:31.211Z,3.97
2022-10-09T02:35:59.464Z,3.70
2022-10-09T02:38:27.808Z,3.80
2022-10-09T02:41:00.067Z,3.83
2022-10-09T02:43:28.924Z,3.70
2022-10-09T02:45:58.379Z,3.80
2022-10-09T02:48:26.535Z,3.83
2022-10-09T02:50:54.655Z,3.70
2022-10-09T02:53:22.746Z,4.03
2022-10-09T02:55:50.790Z,3.93
2022-10-09T02:58:19.521Z,5.13
2022-10-09T03:00:50.059Z,3.80
2022-10-09T03:03:21.289Z,4.03
2022-10-09T03:05:50.002Z,4.10
2022-10-09T03:08:18.851Z,3.53
2022-10-09T03:10:47.249Z,3.77
2022-10-09T03:13:15.339Z,4.03
2022-10-09T03:15:43.480Z,4.13
2022-10-09T03:18:11.912Z,3.80
2022-10-09T03:20:41.450Z,3.60
2022-10-09T03:23:09.559Z,2.80
2022-10-09T03:25:37.651Z,3.17
2022-10-09T03:28:05.837Z,3.17
2022-10-09T03:30:34.056Z,3.50
2022-10-09T03:33:02.169Z,3.00
2022-10-09T03:35:30.236Z,3.47
2022-10-09T03:37:59.688Z,2.90
2022-10-09T03:40:27.758Z,3.67
2022-10-09T03:42:55.828Z,3.60
2022-10-09T03:45:23.882Z,3.53
2022-10-09T03:47:51.972Z,4.00
2022-10-09T03:50:20.039Z,3.10
2022-10-09T03:52:48.412Z,3.23
2022-10-09T03:55:18.370Z,3.13
2022-10-09T03:57:46.452Z,3.53
2022-10-09T04:00:16.576Z,3.67
2022-10-09T04:02:44.709Z,2.80
2022-10-09T04:05:12.882Z,3.40
2022-10-09T04:07:40.955Z,2.93
2022-10-09T04:10:10.111Z,3.33
2022-10-09T04:12:39.952Z,3.20
2022-10-09T04:15:10.502Z,3.70
2022-10-09T04:17:38.595Z,3.33
2022-10-09T04:20:07.712Z,3.57
2022-10-09T04:22:35.854Z,3.73
2022-10-09T04:25:04.234Z,3.43
2022-10-09T04:27:33.123Z,3.30
2022-10-09T04:30:02.704Z,2.60
2022-10-09T04:32:30.859Z,3.20
2022-10-09T04:34:58.983Z,2.80
2022-10-09T04:37:27.042Z,3.07
2022-10-09T04:39:55.069Z,2.73
2022-10-09T04:42:23.201Z,3.27
2022-10-09T04:44:51.566Z,3.37
2022-10-09T04:47:21.158Z,3.40
2022-10-09T04:49:49.272Z,3.20
2022-10-09T04:52:17.333Z,3.23
2022-10-09T04:54:45.381Z,3.10
2022-10-09T04:57:13.571Z,3.20
2022-10-09T04:59:41.658Z,2.83
2022-10-09T05:02:09.936Z,3.70
2022-10-09T05:04:39.502Z,3.57
2022-10-09T05:07:07.630Z,3.57
2022-10-09T05:09:35.767Z,3.77
2022-10-09T05:12:03.865Z,3.40
2022-10-09T05:14:31.981Z,3.60
2022-10-09T05:17:22.937Z,2.97
2022-10-09T05:19:52.925Z,3.20
2022-10-09T05:22:21.008Z,3.50
2022-10-09T05:24:49.274Z,3.60
2022-10-09T05:27:17.385Z,3.40
2022-10-09T05:29:45.457Z,4.23
2022-10-09T05:32:14.597Z,3.20
2022-10-09T05:34:42.727Z,3.27
2022-10-09T05:37:12.177Z,5.17
2022-10-09T05:39:40.397Z,7.07
2022-10-09T05:42:08.501Z,4.90
2022-10-09T05:44:36.620Z,3.37
2022-10-09T05:47:04.834Z,4.67
2022-10-09T05:49:32.974Z,4.53
2022-10-09T05:52:01.054Z,3.87
2022-10-09T05:54:30.767Z,3.47
2022-10-09T05:56:59.078Z,3.80
2022-10-09T05:59:27.397Z,3.07
2022-10-09T06:01:55.551Z,3.70
2022-10-09T06:04:25.848Z,3.47
2022-10-09T06:06:54.020Z,3.53
2022-10-09T06:09:26.031Z,3.17
2022-10-09T06:11:56.244Z,4.23
2022-10-09T06:14:25.047Z,3.10
2022-10-09T06:16:53.607Z,3.63
2022-10-09T06:19:22.877Z,3.37
2022-10-09T06:21:51.823Z,3.77
2022-10-09T06:24:27.894Z,4.10
2022-10-09T06:26:59.034Z,4.33
2022-10-09T06:29:27.419Z,4.07
2022-10-09T06:31:55.555Z,5.90
2022-10-09T06:34:23.936Z,5.10
2022-10-09T06:36:52.065Z,5.53
2022-10-09T06:39:20.427Z,6.60
2022-10-09T06:41:48.544Z,5.97
2022-10-09T06:44:44.426Z,6.50
2022-10-09T06:47:12.560Z,4.63
2022-10-09T06:49:40.678Z,4.57
2022-10-09T06:52:08.781Z,4.90
2022-10-09T06:54:37.166Z,4.93
2022-10-09T06:57:05.402Z,5.40
2022-10-09T06:59:33.791Z,5.13
2022-10-09T07:02:03.309Z,5.20
2022-10-09T07:04:31.879Z,5.70
2022-10-09T07:07:00.007Z,5.50
2022-10-09T07:09:28.092Z,6.30
2022-10-09T07:11:56.189Z,5.33
2022-10-09T07:14:24.341Z,5.60
2022-10-09T07:16:53.447Z,6.40
2022-10-09T07:19:23.174Z,5.87
2022-10-09T07:21:52.986Z,5.93
2022-10-09T07:24:21.240Z,6.13
2022-10-09T07:26:49.816Z,6.73
2022-10-09T07:29:20.033Z,7.00
2022-10-09T07:31:49.730Z,6.00
2022-10-09T07:34:17.922Z,6.53
2022-10-09T07:36:47.486Z,6.70
2022-10-09T07:39:15.652Z,7.30
2022-10-09T07:41:44.052Z,7.50
2022-10-09T07:44:12.278Z,7.93
2022-10-09T07:46:40.519Z,11.03
2022-10-09T07:49:08.625Z,9.27
2022-10-09T07:51:36.763Z,8.57
2022-10-09T07:54:06.504Z,7.43
2022-10-09T07:56:38.444Z,6.23
2022-10-09T07:59:09.436Z,6.63
2022-10-09T08:01:38.388Z,7.33
2022-10-09T08:04:06.909Z,5.63
2022-10-09T08:06:36.199Z,6.00
2022-10-09T08:09:09.083Z,6.00
2022-10-09T08:11:40.549Z,5.10
2022-10-09T08:14:16.585Z,5.07
2022-10-09T08:16:47.506Z,6.10
2022-10-09T08:19:15.670Z,5.97
2022-10-09T08:21:43.768Z,5.43
2022-10-09T08:24:13.406Z,6.40
2022-10-09T08:26:42.394Z,4.53
2022-10-09T08:29:13.848Z,5.37
2022-10-09T08:31:42.086Z,5.30
2022-10-09T08:34:11.971Z,5.70
2022-10-09T08:36:40.391Z,7.00
2022-10-09T08:39:08.583Z,7.97
2022-10-09T08:41:45.978Z,6.00
2022-10-09T08:44:23.263Z,4.60
2022-10-09T08:47:01.325Z,4.73
2022-10-09T08:49:48.442Z,5.03
2022-10-09T08:52:36.610Z,4.20
2022-10-09T08:55:16.937Z,4.15
2022-10-09T08:57:51.343Z,4.37
2022-10-09T09:00:21.974Z,5.20
2022-10-09T09:03:20.909Z,4.37
2022-10-09T09:05:57.691Z,4.97
2022-10-09T09:08:42.167Z,4.37
2022-10-09T09:11:23.445Z,4.35
2022-10-09T09:14:12.416Z,3.67
2022-10-09T09:16:49.673Z,3.70
2022-10-09T09:19:42.271Z,3.20
2022-10-09T09:22:14.342Z,2.10
2022-10-09T09:24:48.761Z,1.90
2022-10-09T09:27:20.754Z,2.00
2022-10-09T09:29:56.480Z,2.00
2022-10-09T09:32:28.498Z,1.85
2022-10-09T09:35:09.304Z,2.10
2022-10-09T09:37:38.274Z,1.73
2022-10-09T09:43:13.208Z,1.90
2022-10-09T09:45:44.131Z,1.80
2022-10-09T09:48:18.517Z,1.88
2022-10-09T09:50:56.235Z,1.60
2022-10-09T09:53:40.936Z,1.88
2022-10-09T09:56:10.601Z,1.50
2022-10-09T09:58:46.335Z,1.83
2022-10-09T10:01:25.846Z,1.70
2022-10-09T10:03:56.720Z,1.60
2022-10-09T10:06:30.491Z,1.55
2022-10-09T10:09:03.951Z,1.27
2022-10-09T10:11:35.584Z,1.80
2022-10-09T10:14:09.925Z,1.38
2022-10-09T10:16:41.163Z,1.40
2022-10-09T10:19:23.639Z,2.00
2022-10-09T10:21:58.957Z,1.35
2022-10-09T10:24:33.317Z,2.05
2022-10-09T10:27:07.567Z,1.27
2022-10-09T10:29:39.871Z,1.90
2022-10-09T10:32:18.199Z,1.20
2022-10-09T10:34:54.595Z,0.95
2022-10-09T10:37:35.065Z,1.45
2022-10-09T10:40:14.094Z,1.50
2022-10-09T10:42:57.463Z,1.60
2022-10-09T10:45:35.332Z,1.40
2022-10-09T10:48:10.414Z,1.60
2022-10-09T10:50:50.966Z,1.17
2022-10-09T10:53:38.900Z,1.10
2022-10-09T10:56:16.104Z,1.90
2022-10-09T10:58:55.292Z,1.50
2022-10-09T11:01:39.740Z,1.27
2022-10-09T11:04:37.766Z,1.38
2022-10-09T11:07:22.478Z,1.27
2022-10-09T11:10:02.418Z,1.40
2022-10-09T11:12:48.129Z,1.35
2022-10-09T11:15:30.766Z,1.13
2022-10-09T11:18:21.612Z,1.00
2022-10-09T11:21:20.458Z,1.05
2022-10-09T11:24:17.502Z,1.02
2022-10-09T11:27:02.388Z,1.20
2022-10-09T11:29:40.800Z,1.20
2022-10-09T11:32:16.649Z,1.00
2022-10-09T11:34:52.002Z,1.10
2022-10-09T11:37:29.323Z,0.82
2022-10-09T11:39:57.827Z,1.10
2022-10-09T11:42:28.025Z,1.00
2022-10-09T11:45:15.550Z,1.58
2022-10-09T11:48:00.681Z,1.10
2022-10-09T11:50:51.348Z,1.15
2022-10-09T11:53:25.771Z,0.60
2022-10-09T11:56:06.274Z,0.90
2022-10-09T11:58:34.957Z,1.25
2022-10-09T12:01:22.498Z,0.70
2022-10-09T12:04:03.559Z,1.15
2022-10-09T12:06:32.950Z,0.88
2022-10-09T12:09:08.136Z,1.90
2022-10-09T12:11:36.579Z,1.70
2022-10-09T12:14:08.964Z,0.85
2022-10-09T12:16:42.140Z,0.70
2022-10-09T12:19:23.250Z,1.08
2022-10-09T12:22:00.336Z,1.15
2022-10-09T12:24:38.338Z,1.10
2022-10-09T12:27:08.916Z,0.70
2022-10-09T12:29:46.101Z,0.80
2022-10-09T12:32:25.547Z,1.02
2022-10-09T12:34:56.293Z,0.85
2022-10-09T12:37:35.001Z,0.88
2022-10-09T12:40:16.340Z,1.20
2022-10-09T12:42:45.687Z,1.08
2022-10-09T12:45:20.110Z,0.80
2022-10-09T12:47:48.760Z,1.00
2022-10-09T12:50:31.535Z,0.98
2022-10-09T12:53:03.244Z,0.77
2022-10-09T12:55:36.379Z,1.10
2022-10-09T12:58:09.723Z,1.13
2022-10-09T13:00:38.058Z,0.73
2022-10-09T13:03:06.258Z,0.90
2022-10-09T13:05:39.357Z,0.95
2022-10-09T13:08:20.002Z,0.70
2022-10-09T13:10:49.588Z,1.00
2022-10-09T13:13:25.609Z,0.85
2022-10-09T13:16:02.953Z,1.05
2022-10-09T13:18:31.202Z,0.90
2022-10-09T13:21:02.682Z,0.80
2022-10-09T13:23:34.382Z,1.10
2022-10-09T13:26:06.776Z,0.80
2022-10-09T13:28:35.001Z,0.90
2022-10-09T13:31:09.912Z,0.82
2022-10-09T13:33:38.199Z,0.85
2022-10-09T13:36:06.913Z,0.90
2022-10-09T13:38:35.602Z,0.95
2022-10-09T13:41:05.368Z,1.20
2022-10-09T13:43:34.180Z,1.17
2022-10-09T13:46:02.360Z,0.82
2022-10-09T13:48:31.261Z,3.25
2022-10-09T13:51:00.099Z,1.20
2022-10-09T13:53:28.657Z,3.03
2022-10-09T13:56:00.756Z,1.10
2022-10-09T13:58:31.170Z,1.20
2022-10-09T14:00:59.446Z,1.45
2022-10-09T14:03:27.987Z,1.35
2022-10-09T14:05:59.957Z,1.33
2022-10-09T14:08:28.520Z,1.00
2022-10-09T14:10:59.825Z,1.23
2022-10-09T14:13:28.671Z,0.93
2022-10-09T14:15:58.182Z,1.15
2022-10-09T14:18:26.331Z,0.70
2022-10-09T14:20:54.631Z,1.00
2022-10-09T14:23:22.745Z,1.35
2022-10-09T14:25:50.879Z,1.17
2022-10-09T14:28:19.127Z,2.55
2022-10-09T14:30:47.307Z,1.40
2022-10-09T14:33:16.827Z,1.17
2022-10-09T14:35:44.909Z,1.00
2022-10-09T14:38:13.069Z,0.80
2022-10-09T14:40:43.733Z,0.88
2022-10-09T14:43:12.506Z,0.77
2022-10-09T14:45:40.811Z,0.90
2022-10-09T14:48:08.910Z,0.90
2022-10-09T14:50:38.561Z,1.00
2022-10-09T14:53:06.761Z,1.15
2022-10-09T14:55:36.080Z,1.00
2022-10-09T14:58:04.159Z,1.13
2022-10-09T15:00:32.310Z,1.40
2022-10-09T15:03:00.489Z,9.60
2022-10-09T15:05:28.638Z,3.90
2022-10-09T15:07:58.161Z,4.05
2022-10-09T15:10:26.384Z,2.10
2022-10-09T15:12:54.562Z,1.35
2022-10-09T15:15:22.730Z,1.70
2022-10-09T15:17:51.135Z,1.67
2022-10-09T15:20:19.533Z,1.20
2022-10-09T15:22:47.680Z,1.92
2022-10-09T15:25:17.559Z,1.55
2022-10-09T15:27:45.685Z,1.75
2022-10-09T15:35:05.995Z,1.80
2022-10-09T15:37:34.166Z,1.60
2022-10-09T15:40:02.361Z,2.72
2022-10-09T15:42:32.090Z,2.03
2022-10-09T15:45:00.164Z,6.50
2022-10-09T15:47:49.830Z,9.65
2022-10-09T15:50:16.532Z,3.83
2022-10-09T15:52:44.620Z,2.53
2022-10-09T15:55:12.748Z,2.10
2022-10-09T15:57:42.197Z,2.15
2022-10-09T16:00:12.004Z,2.60
2022-10-09T16:02:40.144Z,3.47
2022-10-09T16:05:09.461Z,5.60
2022-10-09T16:07:37.569Z,16.92
2022-10-09T16:10:06.779Z,15.77
2022-10-09T16:12:35.129Z,16.77
2022-10-09T16:15:05.021Z,12.32
2022-10-09T16:17:33.126Z,7.15
2022-10-09T16:20:01.274Z,5.95
2022-10-09T16:22:29.562Z,4.70
2022-10-09T16:24:57.957Z,2.97
2022-10-09T16:27:26.245Z,2.53
2022-10-09T16:29:54.441Z,2.00
2022-10-09T16:32:23.933Z,2.45
2022-10-09T16:34:52.053Z,2.42
2022-10-09T16:37:20.198Z,2.22
2022-10-09T16:39:49.343Z,2.10
2022-10-09T16:42:18.067Z,2.90
2022-10-09T16:44:46.224Z,3.33
2022-10-09T16:47:14.422Z,4.15
2022-10-09T16:49:43.963Z,3.90
2022-10-09T16:52:12.647Z,3.67
2022-10-09T16:54:40.741Z,3.45
2022-10-09T16:57:08.932Z,3.28
2022-10-09T16:59:37.445Z,3.42
2022-10-09T17:02:05.665Z,2.83
2022-10-09T17:04:33.839Z,3.70
2022-10-09T17:07:03.372Z,4.38
2022-10-09T17:09:33.342Z,4.32
2022-10-09T17:12:01.546Z,3.40
2022-10-09T17:14:29.767Z,4.10
2022-10-09T17:16:58.338Z,4.97
2022-10-09T17:19:26.521Z,4.25
2022-10-09T17:21:54.757Z,4.68
2022-10-09T17:24:24.258Z,4.45
2022-10-09T17:26:52.474Z,3.83
2022-10-09T17:29:20.879Z,5.38
2022-10-09T17:31:49.497Z,6.22
2022-10-09T17:34:17.862Z,6.20
2022-10-09T17:36:46.610Z,7.05
2022-10-09T17:39:17.481Z,7.25
2022-10-09T17:41:49.329Z,6.03
2022-10-09T17:44:17.692Z,6.93
2022-10-09T17:46:45.844Z,7.35
2022-10-09T17:49:13.947Z,6.80
2022-10-09T17:51:42.417Z,7.18
2022-10-09T17:54:15.247Z,10.25
2022-10-09T17:56:44.376Z,10.00
2022-10-09T17:59:15.535Z,9.85
2022-10-09T18:01:46.729Z,9.93
2022-10-09T18:04:17.704Z,9.90
2022-10-09T18:06:46.668Z,9.68
2022-10-09T18:09:15.118Z,10.38
2022-10-09T18:11:43.477Z,11.43
2022-10-09T18:14:13.072Z,11.60
2022-10-09T18:16:41.972Z,11.68
2022-10-09T18:19:14.509Z,11.70
2022-10-09T18:21:46.720Z,11.57
2022-10-09T18:24:15.970Z,12.65
2022-10-09T18:26:44.795Z,11.55
2022-10-09T18:29:14.373Z,10.98
2022-10-09T18:31:42.594Z,11.57
2022-10-09T18:34:11.615Z,11.30
2022-10-09T18:36:40.190Z,11.75
2022-10-09T18:39:11.150Z,8.30
2022-10-09T18:41:39.443Z,7.85
2022-10-09T18:44:17.130Z,5.38
2022-10-09T18:46:50.903Z,4.57
2022-10-09T18:49:23.675Z,4.93
2022-10-09T18:51:52.742Z,4.38
2022-10-09T18:54:26.404Z,5.28
2022-10-09T18:56:55.338Z,4.07
2022-10-09T18:59:24.244Z,3.85
2022-10-09T19:01:54.137Z,3.70
2022-10-09T19:04:23.346Z,3.90
2022-10-09T19:06:52.205Z,3.47
2022-10-09T19:09:20.836Z,3.83
2022-10-09T19:11:49.286Z,3.75
2022-10-09T19:14:17.613Z,5.77
2022-10-09T19:16:46.900Z,6.75
2022-10-09T19:19:16.899Z,5.47
2022-10-09T19:21:45.574Z,8.48
2022-10-09T19:24:14.442Z,7.97
2022-10-09T19:26:43.180Z,9.48
2022-10-09T19:29:11.988Z,11.00
2022-10-09T19:31:40.202Z,10.23
2022-10-09T19:34:09.125Z,8.95
2022-10-09T19:36:38.913Z,9.55
2022-10-09T19:39:09.609Z,9.63
2022-10-09T19:41:39.423Z,10.43
2022-10-09T19:44:07.569Z,10.97
2022-10-09T19:46:38.615Z,11.43
2022-10-09T19:49:08.718Z,10.25
2022-10-09T19:51:39.173Z,10.77
2022-10-09T19:54:10.037Z,9.63
2022-10-09T19:56:40.611Z,8.77
2022-10-09T19:59:10.150Z,8.38
2022-10-09T20:01:40.278Z,9.00
2022-10-09T20:04:11.367Z,8.43
2022-10-09T20:06:43.250Z,8.80
2022-10-09T20:09:13.046Z,10.40
2022-10-09T20:11:42.162Z,9.65
2022-10-09T20:14:10.989Z,9.30
2022-10-09T20:16:39.892Z,10.35
2022-10-09T20:19:08.317Z,9.10
2022-10-09T20:21:36.600Z,8.47
2022-10-09T20:24:07.151Z,7.72
2022-10-09T20:26:37.712Z,8.53
2022-10-09T20:29:09.099Z,7.20
2022-10-09T20:31:37.238Z,5.85
2022-10-09T20:34:05.498Z,5.90
2022-10-09T20:36:37.364Z,6.03
2022-10-09T20:39:10.223Z,5.70
2022-10-09T20:41:39.418Z,5.53
2022-10-09T20:44:08.028Z,5.73
2022-10-09T20:46:39.025Z,6.00
2022-10-09T20:49:11.180Z,4.97
2022-10-09T20:51:41.194Z,4.83
2022-10-09T20:54:18.173Z,4.63
2022-10-09T20:56:46.880Z,5.30
2022-10-09T20:59:15.643Z,5.57
2022-10-09T21:01:43.976Z,5.23
2022-10-09T21:04:12.996Z,5.10
2022-10-09T21:06:41.739Z,5.40
2022-10-09T21:09:11.397Z,4.57
2022-10-09T21:11:41.368Z,4.57
2022-10-09T21:14:11.154Z,4.20
2022-10-09T21:16:39.577Z,4.43
2022-10-09T21:19:08.088Z,4.10
2022-10-09T21:21:36.353Z,4.67
2022-10-09T21:24:04.831Z,5.10
2022-10-09T21:26:35.828Z,4.73
2022-10-09T21:29:05.181Z,4.30
2022-10-09T21:31:34.450Z,4.50
2022-10-09T21:34:03.439Z,3.97
2022-10-09T21:36:47.079Z,4.07
2022-10-09T21:39:27.239Z,4.67
2022-10-09T21:41:57.134Z,4.00
2022-10-09T21:44:25.237Z,4.22
2022-10-09T21:46:53.320Z,4.40
2022-10-09T21:49:25.244Z,4.17
2022-10-09T21:51:54.265Z,4.40
2022-10-09T21:54:22.964Z,4.13
2022-10-09T21:56:51.171Z,3.63
2022-10-09T21:59:21.271Z,4.27
2022-10-09T22:01:50.038Z,3.77
2022-10-09T22:04:18.190Z,3.67
2022-10-09T22:06:46.394Z,4.47
2022-10-09T22:09:14.564Z,4.03
2022-10-09T22:11:44.349Z,3.80
2022-10-09T22:14:12.995Z,4.07
2022-10-09T22:16:43.229Z,4.80
2022-10-09T22:19:11.925Z,4.57
2022-10-09T22:21:40.167Z,4.43
2022-10-09T22:24:08.414Z,4.30
2022-10-09T22:26:37.325Z,4.45
2022-10-09T22:29:05.500Z,4.53
2022-10-09T22:31:33.648Z,4.90
2022-10-09T22:34:03.593Z,4.50
2022-10-09T22:36:34.616Z,5.13
2022-10-09T22:39:05.690Z,4.67
2022-10-09T22:41:36.017Z,4.60
2022-10-09T22:44:06.564Z,4.77
2022-10-09T22:46:38.551Z,4.70
2022-10-09T22:49:11.426Z,5.47
2022-10-09T22:51:39.583Z,5.87
2022-10-09T22:54:08.201Z,6.30
2022-10-09T22:56:40.077Z,7.87
2022-10-09T22:59:11.586Z,9.00
2022-10-09T23:01:45.299Z,10.87
2022-10-09T23:04:17.897Z,9.27
2022-10-09T23:06:47.048Z,9.43
2022-10-09T23:09:16.262Z,8.13
2022-10-09T23:11:44.514Z,8.17
2022-10-09T23:14:14.707Z,7.27
2022-10-09T23:16:43.264Z,7.20
2022-10-09T23:19:12.054Z,7.20
2022-10-09T23:21:44.158Z,7.70
2022-10-09T23:24:17.867Z,7.80
2022-10-09T23:26:47.731Z,9.00
2022-10-09T23:29:19.327Z,7.07
2022-10-09T23:31:48.501Z,7.57
2022-10-09T23:34:16.841Z,7.33
2022-10-09T23:36:46.393Z,5.80
2022-10-09T23:39:14.575Z,4.80
2022-10-09T23:41:42.911Z,5.23
2022-10-09T23:44:11.038Z,5.13
2022-10-09T23:46:39.832Z,5.23
2022-10-09T23:49:08.033Z,5.33
2022-10-09T23:51:36.177Z,5.07
2022-10-09T23:54:06.045Z,4.63
2022-10-09T23:56:36.733Z,4.30
2022-10-09T23:59:07.185Z,4.20
